createdAt,value
2022-10-18T00:01:45.364Z,6.78
2022-10-18T00:04:48.000Z,7.00
2022-10-18T00:07:50.412Z,5.82
2022-10-18T00:10:53.210Z,8.70
2022-10-18T00:13:56.157Z,8.80
2022-10-18T00:16:59.964Z,7.65
2022-10-18T00:20:02.443Z,8.85
2022-10-18T00:23:04.986Z,7.72
2022-10-18T00:26:10.671Z,8.60
2022-10-18T00:29:15.078Z,8.35
2022-10-18T00:32:19.167Z,10.77
2022-10-18T00:35:21.633Z,9.73
2022-10-18T00:38:24.183Z,8.63
2022-10-18T00:41:29.177Z,8.45
2022-10-18T00:45:17.121Z,9.40
2022-10-18T00:48:21.253Z,9.18
2022-10-18T00:51:25.903Z,8.98
2022-10-18T00:54:30.051Z,10.73
2022-10-18T00:57:32.987Z,10.50
2022-10-18T01:00:39.114Z,8.57
2022-10-18T01:03:43.092Z,9.45
2022-10-18T01:06:50.196Z,13.43
2022-10-18T01:10:00.176Z,13.70
2022-10-18T01:13:10.725Z,7.25
2022-10-18T01:16:20.480Z,11.48
2022-10-18T01:19:46.129Z,11.65
2022-10-18T01:22:51.877Z,14.65
2022-10-18T01:26:00.479Z,9.07
2022-10-18T01:29:11.184Z,9.57
2022-10-18T01:32:17.382Z,11.40
2022-10-18T01:35:23.571Z,11.50
2022-10-18T01:38:26.545Z,12.85
2022-10-18T01:41:29.539Z,16.02
2022-10-18T01:44:33.775Z,17.55
2022-10-18T01:47:37.937Z,11.93
2022-10-18T01:50:40.536Z,15.30
2022-10-18T01:53:43.265Z,15.77
2022-10-18T01:56:49.508Z,12.70
2022-10-18T01:59:56.733Z,17.85
2022-10-18T02:03:05.261Z,14.05
2022-10-18T02:06:09.867Z,12.85
2022-10-18T02:09:16.938Z,17.30
2022-10-18T02:12:20.437Z,14.43
2022-10-18T02:15:25.266Z,14.30
2022-10-18T02:18:33.123Z,19.52
2022-10-18T02:21:36.321Z,14.50
2022-10-18T02:24:43.417Z,16.00
2022-10-18T02:27:45.935Z,17.92
2022-10-18T02:30:58.229Z,17.70
2022-10-18T02:34:06.672Z,19.08
2022-10-18T02:37:10.259Z,17.83
2022-10-18T02:40:13.056Z,16.85
2022-10-18T02:43:15.621Z,19.05
2022-10-18T02:46:18.282Z,16.27
2022-10-18T02:49:22.921Z,14.77
2022-10-18T02:52:25.486Z,15.68
2022-10-18T02:58:31.473Z,17.58
2022-10-18T03:01:34.108Z,16.30
2022-10-18T03:04:38.023Z,19.65
2022-10-18T03:07:40.570Z,16.63
2022-10-18T03:10:43.907Z,17.98
2022-10-18T03:13:56.814Z,16.38
2022-10-18T03:17:00.258Z,17.55
2022-10-18T03:20:04.505Z,17.63
2022-10-18T03:23:07.328Z,16.30
2022-10-18T03:26:09.985Z,15.27
2022-10-18T03:29:12.533Z,17.27
2022-10-18T03:32:14.890Z,16.23
2022-10-18T03:35:18.699Z,17.55
2022-10-18T03:38:21.101Z,17.38
2022-10-18T03:41:23.451Z,17.88
2022-10-18T03:44:25.876Z,20.17
2022-10-18T03:47:28.215Z,23.63
2022-10-18T03:50:31.957Z,23.27
2022-10-18T03:53:34.280Z,16.63
2022-10-18T03:56:36.563Z,20.92
2022-10-18T03:59:38.798Z,18.70
2022-10-18T04:02:41.157Z,18.08
2022-10-18T04:05:44.897Z,15.65
2022-10-18T04:08:47.194Z,17.63
2022-10-18T04:11:50.279Z,14.82
2022-10-18T04:14:53.928Z,15.20
2022-10-18T04:17:57.671Z,17.20
2022-10-18T04:21:01.385Z,16.17
2022-10-18T04:24:04.089Z,18.77
2022-10-18T04:27:07.252Z,19.83
2022-10-18T04:30:10.492Z,16.90
2022-10-18T04:33:12.707Z,18.42
2022-10-18T04:36:16.240Z,16.52
2022-10-18T04:39:18.514Z,16.08
2022-10-18T04:42:20.839Z,15.05
2022-10-18T04:45:23.313Z,16.75
2022-10-18T04:48:25.787Z,17.25
2022-10-18T04:51:29.549Z,17.73
2022-10-18T04:54:32.107Z,16.30
2022-10-18T04:57:34.469Z,19.27
2022-10-18T05:00:39.955Z,18.17
2022-10-18T05:03:42.593Z,17.38
2022-10-18T05:06:46.347Z,28.90
2022-10-18T05:09:48.609Z,17.52
2022-10-18T05:12:51.147Z,17.48
2022-10-18T05:15:53.648Z,18.38
2022-10-18T05:18:56.281Z,22.60
2022-10-18T05:22:00.110Z,19.30
2022-10-18T05:25:02.781Z,20.58
2022-10-18T05:28:10.667Z,22.05
2022-10-18T05:31:13.511Z,18.30
2022-10-18T05:34:16.063Z,23.02
2022-10-18T05:37:22.846Z,21.60
2022-10-18T05:40:27.130Z,22.73
2022-10-18T05:43:29.895Z,19.23
2022-10-18T05:46:32.744Z,18.95
2022-10-18T05:49:36.065Z,19.35
2022-10-18T05:52:39.869Z,18.42
2022-10-18T05:55:42.333Z,18.98
2022-10-18T05:58:44.781Z,16.27
2022-10-18T06:01:47.237Z,21.20
2022-10-18T06:04:49.741Z,18.90
2022-10-18T06:07:53.597Z,36.90
2022-10-18T06:10:57.287Z,23.90
2022-10-18T06:13:59.763Z,19.98
2022-10-18T06:17:02.318Z,27.90
2022-10-18T06:20:05.945Z,22.55
2022-10-18T06:23:09.725Z,24.00
2022-10-18T06:26:12.216Z,26.85
2022-10-18T06:29:14.882Z,22.60
2022-10-18T06:32:17.408Z,22.55
2022-10-18T06:35:19.716Z,21.80
2022-10-18T06:38:23.375Z,27.77
2022-10-18T06:41:25.679Z,25.35
2022-10-18T06:44:27.929Z,26.05
2022-10-18T06:47:30.149Z,26.10
2022-10-18T06:50:32.651Z,28.65
2022-10-18T06:53:44.007Z,27.25
2022-10-18T06:56:51.110Z,23.10
2022-10-18T06:59:53.531Z,24.63
2022-10-18T07:02:56.903Z,22.83
2022-10-18T07:06:00.669Z,27.33
2022-10-18T07:09:04.723Z,24.95
2022-10-18T07:12:07.650Z,34.92
2022-10-18T07:15:11.077Z,25.95
2022-10-18T07:18:13.575Z,28.15
2022-10-18T07:21:18.147Z,25.20
2022-10-18T07:24:21.965Z,26.75
2022-10-18T07:27:24.381Z,24.80
2022-10-18T07:30:26.891Z,24.30
2022-10-18T07:33:29.317Z,28.25
2022-10-18T07:36:31.863Z,25.98
2022-10-18T07:39:35.690Z,27.10
2022-10-18T07:42:38.292Z,29.50
2022-10-18T07:45:40.725Z,30.42
2022-10-18T07:48:43.165Z,32.63
2022-10-18T07:51:45.579Z,36.85
2022-10-18T07:57:56.742Z,34.60
2022-10-18T08:01:03.084Z,38.72
2022-10-18T08:04:07.884Z,37.65
2022-10-18T08:07:12.496Z,39.17
2022-10-18T08:10:16.505Z,37.28
2022-10-18T08:13:19.770Z,41.83
2022-10-18T08:16:23.643Z,41.67
2022-10-18T08:19:26.075Z,42.28
2022-10-18T08:22:28.407Z,42.45
2022-10-18T08:25:32.249Z,49.15
2022-10-18T08:28:38.190Z,41.90
2022-10-18T08:31:40.651Z,41.95
2022-10-18T08:34:43.022Z,37.88
2022-10-18T08:37:45.523Z,42.58
2022-10-18T08:40:49.627Z,38.47
2022-10-18T08:43:57.041Z,41.13
2022-10-18T08:47:02.623Z,44.58
2022-10-18T08:50:07.256Z,45.63
2022-10-18T08:53:15.223Z,48.80
2022-10-18T08:56:24.088Z,40.97
2022-10-18T08:59:29.645Z,48.25
2022-10-18T09:02:39.461Z,49.83
2022-10-18T09:05:47.895Z,53.72
2022-10-18T09:09:01.713Z,45.53
2022-10-18T09:12:18.214Z,48.45
2022-10-18T09:15:23.937Z,53.25
2022-10-18T09:18:47.128Z,51.55
2022-10-18T09:21:52.863Z,51.72
2022-10-18T09:25:03.126Z,57.67
2022-10-18T09:28:16.458Z,57.35
2022-10-18T09:31:21.594Z,52.92
2022-10-18T09:34:29.162Z,59.58
2022-10-18T09:37:33.724Z,58.83
2022-10-18T09:40:42.854Z,56.50
2022-10-18T09:43:50.954Z,55.22
2022-10-18T09:46:57.469Z,59.13
2022-10-18T09:50:02.682Z,55.13
2022-10-18T09:53:13.382Z,61.45
2022-10-18T09:56:18.399Z,60.38
2022-10-18T09:59:31.830Z,65.68
2022-10-18T10:02:34.465Z,62.85
2022-10-18T10:05:37.009Z,65.38
2022-10-18T10:08:41.598Z,67.28
2022-10-18T10:11:46.054Z,65.70
2022-10-18T10:14:49.835Z,62.10
2022-10-18T10:17:57.334Z,60.00
2022-10-18T10:21:03.457Z,55.58
2022-10-18T10:24:06.278Z,63.20
2022-10-18T10:27:17.628Z,64.63
2022-10-18T10:30:26.270Z,63.22
2022-10-18T10:33:32.576Z,55.15
2022-10-18T10:36:35.212Z,48.05
2022-10-18T10:39:37.611Z,52.90
2022-10-18T10:42:56.869Z,53.17
2022-10-18T10:46:10.622Z,60.10
2022-10-18T10:52:43.601Z,47.88
2022-10-18T10:55:46.267Z,44.55
2022-10-18T10:58:48.819Z,45.38
2022-10-18T11:02:20.676Z,56.83
2022-10-18T11:08:27.876Z,66.18
2022-10-18T11:11:33.353Z,66.65
2022-10-18T11:14:39.409Z,53.58
2022-10-18T11:17:48.620Z,54.72
2022-10-18T11:20:53.649Z,55.30
2022-10-18T11:23:57.327Z,51.03
2022-10-18T11:27:05.762Z,49.42
2022-10-18T11:30:25.120Z,48.00
2022-10-18T11:33:56.707Z,41.78
2022-10-18T11:37:34.637Z,42.72
2022-10-18T11:40:35.701Z,40.97
2022-10-18T11:44:01.663Z,42.63
2022-10-18T11:47:10.353Z,38.88
2022-10-18T11:50:26.182Z,42.63
2022-10-18T11:53:33.771Z,43.78
2022-10-18T11:56:43.085Z,50.72
2022-10-18T11:59:50.226Z,49.00
2022-10-18T12:03:04.309Z,54.30
2022-10-18T12:06:12.693Z,55.45
2022-10-18T12:09:25.243Z,50.40
2022-10-18T12:12:30.490Z,50.58
2022-10-18T12:15:36.027Z,52.45
2022-10-18T12:18:47.357Z,61.20
2022-10-18T12:21:51.869Z,59.35
2022-10-18T12:24:54.416Z,56.38
2022-10-18T12:28:02.547Z,56.65
2022-10-18T12:31:08.053Z,53.70
2022-10-18T12:34:31.096Z,58.15
2022-10-18T12:38:00.191Z,66.50
2022-10-18T12:41:03.375Z,62.17
2022-10-18T12:44:19.159Z,63.53
2022-10-18T12:47:23.957Z,66.22
2022-10-18T12:50:37.770Z,69.35
2022-10-18T12:53:42.689Z,63.92
2022-10-18T12:56:46.778Z,59.80
2022-10-18T12:59:49.896Z,65.88
2022-10-18T13:03:36.570Z,57.75
2022-10-18T13:07:17.842Z,59.75
2022-10-18T13:10:40.007Z,64.88
2022-10-18T13:13:53.037Z,65.80
2022-10-18T13:16:59.670Z,59.28
2022-10-18T13:20:25.614Z,62.67
2022-10-18T13:23:39.538Z,54.50
2022-10-18T13:26:58.238Z,44.25
2022-10-18T13:30:21.413Z,40.88
2022-10-18T13:33:30.980Z,37.67
2022-10-18T13:36:33.641Z,33.75
2022-10-18T13:39:36.731Z,35.63
2022-10-18T13:42:40.605Z,31.55
2022-10-18T13:45:53.024Z,29.02
2022-10-18T13:48:59.819Z,34.45
2022-10-18T13:52:09.099Z,31.80
2022-10-18T13:55:29.671Z,24.77
2022-10-18T13:58:48.850Z,25.20
2022-10-18T14:02:13.106Z,25.10
2022-10-18T14:05:25.441Z,24.85
2022-10-18T14:11:46.255Z,23.45
2022-10-18T14:14:54.734Z,21.60
2022-10-18T14:18:00.522Z,22.30
2022-10-18T14:21:14.576Z,24.08
2022-10-18T14:24:21.596Z,19.83
2022-10-18T14:27:25.244Z,20.40
2022-10-18T14:30:30.743Z,19.90
2022-10-18T14:33:34.756Z,20.80
2022-10-18T14:36:40.916Z,25.55
2022-10-18T14:39:43.369Z,19.17
2022-10-18T14:42:49.076Z,25.45
2022-10-18T14:45:53.086Z,19.70
2022-10-18T14:48:56.779Z,20.02
2022-10-18T14:52:00.143Z,25.85
2022-10-18T14:55:03.158Z,21.98
2022-10-18T14:58:09.567Z,19.55
2022-10-18T15:01:16.731Z,21.15
2022-10-18T15:04:19.421Z,25.95
2022-10-18T15:07:21.943Z,25.17
2022-10-18T15:10:26.418Z,31.35
2022-10-18T15:13:30.424Z,23.02
2022-10-18T15:16:34.895Z,26.92
2022-10-18T15:19:42.782Z,26.45
2022-10-18T15:22:46.941Z,30.30
2022-10-18T15:25:50.455Z,26.80
2022-10-18T15:28:56.191Z,26.20
2022-10-18T15:32:05.445Z,24.70
2022-10-18T15:35:09.779Z,26.30
2022-10-18T15:38:16.644Z,22.35
2022-10-18T15:41:39.640Z,20.75
2022-10-18T15:44:48.177Z,20.48
2022-10-18T15:48:03.425Z,15.63
2022-10-18T15:51:06.849Z,18.40
2022-10-18T15:54:17.414Z,12.63
2022-10-18T15:57:19.846Z,14.38
2022-10-18T16:00:22.407Z,12.55
2022-10-18T16:03:26.269Z,16.58
2022-10-18T16:06:28.687Z,16.35
2022-10-18T16:09:31.085Z,10.95
2022-10-18T16:12:33.516Z,15.30
2022-10-18T16:15:36.110Z,15.63
2022-10-18T16:18:39.876Z,17.45
2022-10-18T16:21:42.599Z,14.25
2022-10-18T16:24:44.962Z,13.40
2022-10-18T16:27:47.489Z,9.63
2022-10-18T16:30:55.763Z,12.38
2022-10-18T16:34:00.260Z,9.98
2022-10-18T16:37:02.839Z,12.13
2022-10-18T16:40:22.255Z,9.63
2022-10-18T16:43:25.197Z,12.57
2022-10-18T16:46:29.557Z,15.98
2022-10-18T16:49:33.504Z,11.05
2022-10-18T16:52:36.117Z,14.45
2022-10-18T16:55:39.581Z,56.20
2022-10-18T16:58:42.238Z,127.13
2022-10-18T17:01:45.574Z,19.20
2022-10-18T17:04:49.511Z,43.38
2022-10-18T17:07:51.994Z,13.65
2022-10-18T17:10:56.424Z,11.98
2022-10-18T17:13:58.887Z,13.35
2022-10-18T17:17:01.538Z,9.18
2022-10-18T17:20:07.622Z,14.00
2022-10-18T17:23:10.375Z,15.02
2022-10-18T17:26:28.511Z,12.65
2022-10-18T17:29:31.928Z,15.93
2022-10-18T17:32:34.627Z,14.98
2022-10-18T17:35:38.820Z,15.57
2022-10-18T17:38:41.304Z,13.27
2022-10-18T17:41:43.677Z,17.55
2022-10-18T17:44:46.240Z,18.13
2022-10-18T17:47:48.753Z,21.38
2022-10-18T17:50:52.575Z,19.75
2022-10-18T17:53:55.153Z,19.58
2022-10-18T17:56:57.735Z,19.08
2022-10-18T18:00:00.288Z,18.70
2022-10-18T18:03:03.043Z,17.52
2022-10-18T18:06:15.375Z,16.85
2022-10-18T18:09:17.992Z,16.75
2022-10-18T18:12:20.454Z,16.63
2022-10-18T18:15:22.888Z,17.58
2022-10-18T18:18:25.303Z,20.73
2022-10-18T18:21:29.234Z,16.08
2022-10-18T18:24:32.150Z,21.17
2022-10-18T18:27:34.638Z,23.83
2022-10-18T18:30:40.040Z,19.05
2022-10-18T18:33:43.267Z,17.73
2022-10-18T18:36:47.606Z,18.25
2022-10-18T18:39:50.049Z,21.05
2022-10-18T18:43:07.193Z,22.38
2022-10-18T18:46:16.381Z,17.05
2022-10-18T18:49:18.861Z,16.70
2022-10-18T18:52:23.592Z,27.63
2022-10-18T18:55:26.053Z,19.00
2022-10-18T18:58:28.649Z,22.27
2022-10-18T19:01:32.728Z,20.85
2022-10-18T19:04:36.257Z,21.00
2022-10-18T19:07:40.252Z,29.83
2022-10-18T19:10:42.651Z,30.55
2022-10-18T19:13:45.794Z,29.30
2022-10-18T19:16:48.990Z,26.85
2022-10-18T19:19:52.031Z,25.70
2022-10-18T19:22:56.190Z,25.50
2022-10-18T19:26:09.680Z,30.17
2022-10-18T19:29:14.404Z,28.27
2022-10-18T19:32:17.003Z,26.60
2022-10-18T19:35:19.424Z,19.52
2022-10-18T19:38:23.227Z,23.40
2022-10-18T19:44:31.373Z,21.45
2022-10-18T19:47:33.972Z,28.13
2022-10-18T19:50:36.639Z,30.77
2022-10-18T19:53:40.901Z,20.15
2022-10-18T19:56:43.798Z,23.92
2022-10-18T19:59:46.405Z,20.77
2022-10-18T20:02:48.954Z,21.15
2022-10-18T20:05:56.019Z,20.88
2022-10-18T20:09:00.219Z,23.63
2022-10-18T20:12:05.122Z,22.00
2022-10-18T20:15:08.836Z,25.33
2022-10-18T20:18:11.101Z,21.08
2022-10-18T20:21:15.518Z,15.88
2022-10-18T20:24:19.188Z,26.17
2022-10-18T20:27:21.723Z,24.73
2022-10-18T20:30:24.023Z,21.50
2022-10-18T20:33:26.380Z,22.55
2022-10-18T20:36:30.325Z,23.00
2022-10-18T20:39:35.144Z,21.83
2022-10-18T20:42:37.434Z,20.67
2022-10-18T20:45:39.648Z,21.27
2022-10-18T20:48:41.979Z,20.88
2022-10-18T20:51:44.547Z,22.05
2022-10-18T20:54:48.149Z,23.55
2022-10-18T20:57:50.402Z,22.48
2022-10-18T21:00:52.766Z,19.25
2022-10-18T21:03:56.274Z,24.90
2022-10-18T21:07:00.486Z,21.00
2022-10-18T21:10:04.826Z,17.55
2022-10-18T21:13:07.056Z,23.10
2022-10-18T21:16:09.720Z,21.30
2022-10-18T21:19:14.099Z,21.48
2022-10-18T21:22:16.338Z,17.92
2022-10-18T21:25:19.899Z,20.17
2022-10-18T21:28:22.195Z,23.42
2022-10-18T21:31:25.797Z,24.70
2022-10-18T21:56:06.483Z,21.42
2022-10-18T21:59:11.206Z,20.13
2022-10-18T22:02:13.450Z,20.55
2022-10-18T22:05:15.793Z,16.35
2022-10-18T22:08:18.112Z,15.10
2022-10-18T22:11:24.232Z,16.50
2022-10-18T22:14:26.576Z,14.48
2022-10-18T22:17:28.755Z,16.75
2022-10-18T22:20:31.000Z,19.48
2022-10-18T22:23:34.297Z,22.85
2022-10-18T22:26:39.246Z,17.30
2022-10-18T22:29:41.580Z,17.15
2022-10-18T22:32:43.793Z,14.68
2022-10-18T22:35:48.941Z,19.38
2022-10-18T22:38:51.366Z,17.65
2022-10-18T22:41:56.535Z,14.85
2022-10-18T22:44:58.766Z,16.30
2022-10-18T22:48:00.950Z,19.30
2022-10-18T22:51:03.898Z,18.55
2022-10-18T22:54:06.142Z,18.38
2022-10-18T22:57:10.055Z,14.20
2022-10-18T23:00:13.093Z,15.00
2022-10-18T23:03:16.583Z,14.68
2022-10-18T23:06:21.216Z,13.10
2022-10-18T23:09:23.491Z,10.25
2022-10-18T23:12:27.208Z,11.57
2022-10-18T23:15:29.644Z,11.70
2022-10-18T23:18:32.897Z,11.27
2022-10-18T23:21:35.270Z,15.13
2022-10-18T23:24:37.704Z,12.15
2022-10-18T23:30:43.680Z,12.95
2022-10-18T23:33:46.946Z,15.15
2022-10-18T23:36:49.107Z,13.07
2022-10-18T23:39:51.338Z,11.82
2022-10-18T23:42:54.900Z,12.18
2022-10-18T23:45:57.133Z,11.98
2022-10-18T23:48:59.348Z,12.95
2022-10-18T23:52:01.549Z,12.27
2022-10-18T23:55:04.364Z,12.45
2022-10-18T23:58:08.075Z,14.30
